sensor_id;sensor_type;location;lat;lon;timestamp;P1;durP1;ratioP1;P2;durP2;ratioP2
16073;SDS011;8141;52.664;5.074;2023-04-25T00:01:17;2.57;;;1.23;;
16073;SDS011;8141;52.664;5.074;2023-04-25T00:03:43;4.00;;;1.70;;
16073;SDS011;8141;52.664;5.074;2023-04-25T00:06:10;2.47;;;1.40;;
16073;SDS011;8141;52.664;5.074;2023-04-25T00:08:37;2.80;;;1.60;;
16073;SDS011;8141;52.664;5.074;2023-04-25T00:11:03;2.80;;;1.50;;
16073;SDS011;8141;52.664;5.074;2023-04-25T00:13:29;2.60;;;1.67;;
16073;SDS011;8141;52.664;5.074;2023-04-25T00:15:55;4.23;;;2.17;;
16073;SDS011;8141;52.664;5.074;2023-04-25T00:18:23;2.80;;;1.63;;
16073;SDS011;8141;52.664;5.074;2023-04-25T00:20:49;2.00;;;1.30;;
16073;SDS011;8141;52.664;5.074;2023-04-25T00:23:15;5.03;;;1.73;;
16073;SDS011;8141;52.664;5.074;2023-04-25T00:25:45;2.87;;;1.33;;
16073;SDS011;8141;52.664;5.074;2023-04-25T00:28:12;4.70;;;1.20;;
16073;SDS011;8141;52.664;5.074;2023-04-25T00:30:39;3.10;;;1.50;;
16073;SDS011;8141;52.664;5.074;2023-04-25T00:33:06;2.97;;;1.20;;
16073;SDS011;8141;52.664;5.074;2023-04-25T00:35:33;3.17;;;1.27;;
16073;SDS011;8141;52.664;5.074;2023-04-25T00:37:58;2.67;;;1.40;;
16073;SDS011;8141;52.664;5.074;2023-04-25T00:40:24;4.60;;;1.40;;
16073;SDS011;8141;52.664;5.074;2023-04-25T00:42:51;2.93;;;1.40;;
16073;SDS011;8141;52.664;5.074;2023-04-25T00:45:18;3.70;;;1.53;;
16073;SDS011;8141;52.664;5.074;2023-04-25T00:47:45;3.27;;;1.53;;
16073;SDS011;8141;52.664;5.074;2023-04-25T00:50:12;5.07;;;1.30;;
16073;SDS011;8141;52.664;5.074;2023-04-25T00:52:43;2.60;;;1.53;;
16073;SDS011;8141;52.664;5.074;2023-04-25T00:55:10;2.53;;;1.60;;
16073;SDS011;8141;52.664;5.074;2023-04-25T00:57:37;2.77;;;1.40;;
16073;SDS011;8141;52.664;5.074;2023-04-25T01:00:04;3.50;;;1.73;;
16073;SDS011;8141;52.664;5.074;2023-04-25T01:02:32;3.83;;;1.83;;
16073;SDS011;8141;52.664;5.074;2023-04-25T01:04:58;3.80;;;1.60;;
16073;SDS011;8141;52.664;5.074;2023-04-25T01:07:24;2.07;;;1.30;;
16073;SDS011;8141;52.664;5.074;2023-04-25T01:09:51;2.73;;;1.37;;
16073;SDS011;8141;52.664;5.074;2023-04-25T01:12:17;2.70;;;1.30;;
16073;SDS011;8141;52.664;5.074;2023-04-25T01:14:43;4.83;;;1.50;;
16073;SDS011;8141;52.664;5.074;2023-04-25T01:17:09;3.13;;;0.90;;
16073;SDS011;8141;52.664;5.074;2023-04-25T01:19:36;2.77;;;1.40;;
16073;SDS011;8141;52.664;5.074;2023-04-25T01:22:02;2.27;;;1.00;;
16073;SDS011;8141;52.664;5.074;2023-04-25T01:24:28;5.67;;;1.50;;
16073;SDS011;8141;52.664;5.074;2023-04-25T01:26:56;2.80;;;1.30;;
16073;SDS011;8141;52.664;5.074;2023-04-25T01:29:25;2.30;;;1.13;;
16073;SDS011;8141;52.664;5.074;2023-04-25T01:31:52;1.43;;;0.87;;
16073;SDS011;8141;52.664;5.074;2023-04-25T01:34:18;3.13;;;1.20;;
16073;SDS011;8141;52.664;5.074;2023-04-25T01:36:44;2.30;;;1.07;;
16073;SDS011;8141;52.664;5.074;2023-04-25T01:39:13;2.53;;;1.17;;
16073;SDS011;8141;52.664;5.074;2023-04-25T01:41:40;3.43;;;1.30;;
16073;SDS011;8141;52.664;5.074;2023-04-25T01:44:06;3.80;;;1.40;;
16073;SDS011;8141;52.664;5.074;2023-04-25T01:46:32;2.37;;;1.17;;
16073;SDS011;8141;52.664;5.074;2023-04-25T01:48:59;2.40;;;1.27;;
16073;SDS011;8141;52.664;5.074;2023-04-25T01:51:25;1.57;;;1.10;;
16073;SDS011;8141;52.664;5.074;2023-04-25T01:53:51;1.93;;;1.20;;
16073;SDS011;8141;52.664;5.074;2023-04-25T01:56:18;2.60;;;1.17;;
16073;SDS011;8141;52.664;5.074;2023-04-25T01:58:44;2.00;;;1.00;;
16073;SDS011;8141;52.664;5.074;2023-04-25T02:01:10;2.63;;;1.03;;
16073;SDS011;8141;52.664;5.074;2023-04-25T02:03:36;1.97;;;0.97;;
16073;SDS011;8141;52.664;5.074;2023-04-25T02:06:01;3.27;;;1.40;;
16073;SDS011;8141;52.664;5.074;2023-04-25T02:08:27;2.40;;;1.00;;
16073;SDS011;8141;52.664;5.074;2023-04-25T02:10:53;3.23;;;1.23;;
16073;SDS011;8141;52.664;5.074;2023-04-25T02:13:19;2.23;;;1.20;;
16073;SDS011;8141;52.664;5.074;2023-04-25T02:15:45;2.40;;;1.27;;
16073;SDS011;8141;52.664;5.074;2023-04-25T02:18:10;2.03;;;1.10;;
16073;SDS011;8141;52.664;5.074;2023-04-25T02:20:36;1.90;;;1.03;;
16073;SDS011;8141;52.664;5.074;2023-04-25T02:23:02;2.70;;;1.33;;
16073;SDS011;8141;52.664;5.074;2023-04-25T02:25:28;4.97;;;1.10;;
16073;SDS011;8141;52.664;5.074;2023-04-25T02:27:54;2.10;;;0.83;;
16073;SDS011;8141;52.664;5.074;2023-04-25T02:30:20;6.00;;;1.20;;
16073;SDS011;8141;52.664;5.074;2023-04-25T02:32:46;2.37;;;1.00;;
16073;SDS011;8141;52.664;5.074;2023-04-25T02:35:11;1.10;;;1.00;;
16073;SDS011;8141;52.664;5.074;2023-04-25T02:37:38;2.93;;;0.93;;
16073;SDS011;8141;52.664;5.074;2023-04-25T02:40:06;3.20;;;1.07;;
16073;SDS011;8141;52.664;5.074;2023-04-25T02:42:32;3.57;;;1.20;;
16073;SDS011;8141;52.664;5.074;2023-04-25T02:44:58;1.50;;;0.93;;
16073;SDS011;8141;52.664;5.074;2023-04-25T02:47:24;2.23;;;1.10;;
16073;SDS011;8141;52.664;5.074;2023-04-25T02:49:50;4.43;;;1.00;;
16073;SDS011;8141;52.664;5.074;2023-04-25T02:52:16;1.93;;;1.00;;
16073;SDS011;8141;52.664;5.074;2023-04-25T02:54:41;3.90;;;1.20;;
16073;SDS011;8141;52.664;5.074;2023-04-25T02:57:07;1.77;;;1.17;;
16073;SDS011;8141;52.664;5.074;2023-04-25T02:59:33;1.40;;;0.70;;
16073;SDS011;8141;52.664;5.074;2023-04-25T03:01:59;1.97;;;0.83;;
16073;SDS011;8141;52.664;5.074;2023-04-25T03:04:26;2.03;;;1.27;;
16073;SDS011;8141;52.664;5.074;2023-04-25T03:06:52;6.13;;;1.10;;
16073;SDS011;8141;52.664;5.074;2023-04-25T03:09:18;3.13;;;0.80;;
16073;SDS011;8141;52.664;5.074;2023-04-25T03:11:44;2.10;;;0.93;;
16073;SDS011;8141;52.664;5.074;2023-04-25T03:14:11;3.63;;;1.20;;
16073;SDS011;8141;52.664;5.074;2023-04-25T03:16:38;3.73;;;0.77;;
16073;SDS011;8141;52.664;5.074;2023-04-25T03:19:04;2.10;;;1.07;;
16073;SDS011;8141;52.664;5.074;2023-04-25T03:21:30;2.67;;;0.93;;
16073;SDS011;8141;52.664;5.074;2023-04-25T03:23:58;1.40;;;0.80;;
16073;SDS011;8141;52.664;5.074;2023-04-25T03:26:25;1.80;;;0.80;;
16073;SDS011;8141;52.664;5.074;2023-04-25T03:28:50;1.93;;;0.97;;
16073;SDS011;8141;52.664;5.074;2023-04-25T03:31:16;1.83;;;1.07;;
16073;SDS011;8141;52.664;5.074;2023-04-25T03:33:42;1.70;;;0.80;;
16073;SDS011;8141;52.664;5.074;2023-04-25T03:36:08;2.23;;;0.80;;
16073;SDS011;8141;52.664;5.074;2023-04-25T03:38:34;1.33;;;0.73;;
16073;SDS011;8141;52.664;5.074;2023-04-25T03:41:00;1.50;;;0.87;;
16073;SDS011;8141;52.664;5.074;2023-04-25T03:43:27;1.13;;;0.60;;
16073;SDS011;8141;52.664;5.074;2023-04-25T03:45:52;1.10;;;0.80;;
16073;SDS011;8141;52.664;5.074;2023-04-25T03:48:18;2.63;;;1.00;;
16073;SDS011;8141;52.664;5.074;2023-04-25T03:50:46;1.53;;;0.73;;
16073;SDS011;8141;52.664;5.074;2023-04-25T03:53:12;1.90;;;0.80;;
16073;SDS011;8141;52.664;5.074;2023-04-25T03:55:38;1.17;;;0.80;;
16073;SDS011;8141;52.664;5.074;2023-04-25T03:58:04;1.10;;;0.70;;
16073;SDS011;8141;52.664;5.074;2023-04-25T04:00:30;2.77;;;0.93;;
16073;SDS011;8141;52.664;5.074;2023-04-25T04:02:55;2.13;;;0.80;;
16073;SDS011;8141;52.664;5.074;2023-04-25T04:05:22;4.60;;;0.77;;
16073;SDS011;8141;52.664;5.074;2023-04-25T04:07:48;1.07;;;0.73;;
16073;SDS011;8141;52.664;5.074;2023-04-25T04:10:14;1.10;;;0.57;;
16073;SDS011;8141;52.664;5.074;2023-04-25T04:12:39;1.63;;;0.73;;
16073;SDS011;8141;52.664;5.074;2023-04-25T04:15:05;1.40;;;0.83;;
16073;SDS011;8141;52.664;5.074;2023-04-25T04:17:33;0.80;;;0.60;;
16073;SDS011;8141;52.664;5.074;2023-04-25T04:19:59;3.47;;;1.07;;
16073;SDS011;8141;52.664;5.074;2023-04-25T04:22:25;1.90;;;0.80;;
16073;SDS011;8141;52.664;5.074;2023-04-25T04:24:51;3.13;;;1.10;;
16073;SDS011;8141;52.664;5.074;2023-04-25T04:27:18;1.37;;;0.70;;
16073;SDS011;8141;52.664;5.074;2023-04-25T04:29:44;1.47;;;0.80;;
16073;SDS011;8141;52.664;5.074;2023-04-25T04:32:11;1.83;;;0.90;;
16073;SDS011;8141;52.664;5.074;2023-04-25T04:34:38;2.33;;;1.00;;
16073;SDS011;8141;52.664;5.074;2023-04-25T04:37:04;2.27;;;1.00;;
16073;SDS011;8141;52.664;5.074;2023-04-25T04:39:32;1.60;;;0.77;;
16073;SDS011;8141;52.664;5.074;2023-04-25T04:42:01;3.23;;;0.83;;
16073;SDS011;8141;52.664;5.074;2023-04-25T04:44:28;0.90;;;0.70;;
16073;SDS011;8141;52.664;5.074;2023-04-25T04:46:58;4.20;;;1.03;;
16073;SDS011;8141;52.664;5.074;2023-04-25T04:49:24;3.80;;;1.30;;
16073;SDS011;8141;52.664;5.074;2023-04-25T04:51:50;11.10;;;1.30;;
16073;SDS011;8141;52.664;5.074;2023-04-25T04:54:16;21.13;;;2.10;;
16073;SDS011;8141;52.664;5.074;2023-04-25T04:56:41;13.17;;;2.23;;
16073;SDS011;8141;52.664;5.074;2023-04-25T04:59:08;14.10;;;1.97;;
16073;SDS011;8141;52.664;5.074;2023-04-25T05:01:34;12.90;;;1.50;;
16073;SDS011;8141;52.664;5.074;2023-04-25T05:04:02;9.33;;;1.80;;
16073;SDS011;8141;52.664;5.074;2023-04-25T05:06:29;9.23;;;1.93;;
16073;SDS011;8141;52.664;5.074;2023-04-25T05:08:56;8.07;;;2.00;;
16073;SDS011;8141;52.664;5.074;2023-04-25T05:11:22;6.93;;;1.87;;
16073;SDS011;8141;52.664;5.074;2023-04-25T05:13:51;8.53;;;1.80;;
16073;SDS011;8141;52.664;5.074;2023-04-25T05:16:18;7.20;;;1.53;;
16073;SDS011;8141;52.664;5.074;2023-04-25T05:18:44;7.90;;;1.83;;
16073;SDS011;8141;52.664;5.074;2023-04-25T05:21:11;6.67;;;2.17;;
16073;SDS011;8141;52.664;5.074;2023-04-25T05:23:36;9.53;;;2.50;;
16073;SDS011;8141;52.664;5.074;2023-04-25T05:26:02;5.10;;;1.37;;
16073;SDS011;8141;52.664;5.074;2023-04-25T05:28:28;7.07;;;1.70;;
16073;SDS011;8141;52.664;5.074;2023-04-25T05:30:54;2.83;;;1.50;;
16073;SDS011;8141;52.664;5.074;2023-04-25T05:33:19;8.97;;;1.63;;
16073;SDS011;8141;52.664;5.074;2023-04-25T05:35:45;5.37;;;1.53;;
16073;SDS011;8141;52.664;5.074;2023-04-25T05:38:11;5.37;;;1.67;;
16073;SDS011;8141;52.664;5.074;2023-04-25T05:40:37;6.57;;;1.63;;
16073;SDS011;8141;52.664;5.074;2023-04-25T05:43:03;7.43;;;1.60;;
16073;SDS011;8141;52.664;5.074;2023-04-25T05:45:29;5.83;;;1.70;;
16073;SDS011;8141;52.664;5.074;2023-04-25T05:47:55;4.23;;;1.73;;
16073;SDS011;8141;52.664;5.074;2023-04-25T05:50:20;4.30;;;1.43;;
16073;SDS011;8141;52.664;5.074;2023-04-25T05:52:46;6.73;;;1.67;;
16073;SDS011;8141;52.664;5.074;2023-04-25T05:55:12;4.50;;;1.50;;
16073;SDS011;8141;52.664;5.074;2023-04-25T05:57:38;6.23;;;1.40;;
16073;SDS011;8141;52.664;5.074;2023-04-25T06:00:06;5.53;;;1.37;;
16073;SDS011;8141;52.664;5.074;2023-04-25T06:02:34;5.63;;;1.97;;
16073;SDS011;8141;52.664;5.074;2023-04-25T06:05:00;6.43;;;1.50;;
16073;SDS011;8141;52.664;5.074;2023-04-25T06:07:28;5.60;;;1.60;;
16073;SDS011;8141;52.664;5.074;2023-04-25T06:09:55;5.53;;;1.53;;
16073;SDS011;8141;52.664;5.074;2023-04-25T06:12:21;8.00;;;1.60;;
16073;SDS011;8141;52.664;5.074;2023-04-25T06:17:12;5.00;;;1.40;;
16073;SDS011;8141;52.664;5.074;2023-04-25T06:22:04;6.47;;;1.77;;
16073;SDS011;8141;52.664;5.074;2023-04-25T06:24:29;7.27;;;1.63;;
16073;SDS011;8141;52.664;5.074;2023-04-25T06:29:21;5.47;;;1.30;;
16073;SDS011;8141;52.664;5.074;2023-04-25T06:34:12;7.67;;;1.70;;
16073;SDS011;8141;52.664;5.074;2023-04-25T06:39:03;4.73;;;1.73;;
16073;SDS011;8141;52.664;5.074;2023-04-25T06:43:55;4.37;;;1.50;;
16073;SDS011;8141;52.664;5.074;2023-04-25T06:48:46;5.00;;;1.40;;
16073;SDS011;8141;52.664;5.074;2023-04-25T06:53:38;5.97;;;1.40;;
16073;SDS011;8141;52.664;5.074;2023-04-25T06:56:05;3.93;;;1.27;;
16073;SDS011;8141;52.664;5.074;2023-04-25T06:58:31;4.07;;;1.40;;
16073;SDS011;8141;52.664;5.074;2023-04-25T07:03:22;4.20;;;1.60;;
16073;SDS011;8141;52.664;5.074;2023-04-25T07:05:48;3.47;;;1.20;;
16073;SDS011;8141;52.664;5.074;2023-04-25T07:08:15;4.63;;;1.17;;
16073;SDS011;8141;52.664;5.074;2023-04-25T07:10:42;4.37;;;1.40;;
16073;SDS011;8141;52.664;5.074;2023-04-25T07:13:08;5.30;;;1.10;;
16073;SDS011;8141;52.664;5.074;2023-04-25T07:15:33;4.03;;;1.33;;
16073;SDS011;8141;52.664;5.074;2023-04-25T07:20:25;4.33;;;1.43;;
16073;SDS011;8141;52.664;5.074;2023-04-25T07:22:52;4.60;;;1.60;;
16073;SDS011;8141;52.664;5.074;2023-04-25T07:27:44;6.40;;;1.80;;
16073;SDS011;8141;52.664;5.074;2023-04-25T07:30:10;5.80;;;1.50;;
16073;SDS011;8141;52.664;5.074;2023-04-25T07:32:37;5.00;;;1.27;;
16073;SDS011;8141;52.664;5.074;2023-04-25T07:35:04;4.47;;;1.60;;
16073;SDS011;8141;52.664;5.074;2023-04-25T07:37:32;3.93;;;1.60;;
16073;SDS011;8141;52.664;5.074;2023-04-25T07:39:58;6.03;;;1.60;;
16073;SDS011;8141;52.664;5.074;2023-04-25T07:44:50;5.63;;;1.93;;
16073;SDS011;8141;52.664;5.074;2023-04-25T07:47:16;6.10;;;1.70;;
16073;SDS011;8141;52.664;5.074;2023-04-25T07:49:44;5.80;;;2.17;;
16073;SDS011;8141;52.664;5.074;2023-04-25T07:52:10;5.13;;;1.77;;
16073;SDS011;8141;52.664;5.074;2023-04-25T07:54:36;7.67;;;2.17;;
16073;SDS011;8141;52.664;5.074;2023-04-25T07:57:02;8.87;;;2.00;;
16073;SDS011;8141;52.664;5.074;2023-04-25T08:01:54;9.77;;;2.43;;
16073;SDS011;8141;52.664;5.074;2023-04-25T08:04:21;8.10;;;2.73;;
16073;SDS011;8141;52.664;5.074;2023-04-25T08:06:47;6.17;;;2.33;;
16073;SDS011;8141;52.664;5.074;2023-04-25T08:09:15;6.97;;;2.40;;
16073;SDS011;8141;52.664;5.074;2023-04-25T08:14:06;4.57;;;1.97;;
16073;SDS011;8141;52.664;5.074;2023-04-25T08:18:59;6.53;;;2.00;;
16073;SDS011;8141;52.664;5.074;2023-04-25T08:21:25;8.57;;;2.60;;
16073;SDS011;8141;52.664;5.074;2023-04-25T08:23:52;7.10;;;2.30;;
16073;SDS011;8141;52.664;5.074;2023-04-25T08:28:43;8.67;;;1.87;;
16073;SDS011;8141;52.664;5.074;2023-04-25T08:33:35;7.40;;;2.47;;
16073;SDS011;8141;52.664;5.074;2023-04-25T08:36:01;4.70;;;1.97;;
16073;SDS011;8141;52.664;5.074;2023-04-25T08:38:27;8.20;;;2.50;;
16073;SDS011;8141;52.664;5.074;2023-04-25T08:43:20;8.82;;;2.35;;
16073;SDS011;8141;52.664;5.074;2023-04-25T08:45:47;5.40;;;2.20;;
16073;SDS011;8141;52.664;5.074;2023-04-25T08:50:43;6.27;;;2.23;;
16073;SDS011;8141;52.664;5.074;2023-04-25T08:53:15;7.60;;;2.00;;
16073;SDS011;8141;52.664;5.074;2023-04-25T08:55:46;6.53;;;2.03;;
16073;SDS011;8141;52.664;5.074;2023-04-25T08:58:12;5.60;;;1.97;;
16073;SDS011;8141;52.664;5.074;2023-04-25T09:00:39;4.43;;;1.80;;
16073;SDS011;8141;52.664;5.074;2023-04-25T09:05:32;3.47;;;1.70;;
16073;SDS011;8141;52.664;5.074;2023-04-25T09:07:59;4.87;;;1.67;;
16073;SDS011;8141;52.664;5.074;2023-04-25T09:10:26;5.37;;;2.40;;
16073;SDS011;8141;52.664;5.074;2023-04-25T09:13:05;5.93;;;1.80;;
16073;SDS011;8141;52.664;5.074;2023-04-25T09:15:49;6.10;;;1.90;;
16073;SDS011;8141;52.664;5.074;2023-04-25T09:18:24;8.37;;;2.00;;
16073;SDS011;8141;52.664;5.074;2023-04-25T09:20:55;4.90;;;1.83;;
16073;SDS011;8141;52.664;5.074;2023-04-25T09:23:23;3.93;;;1.60;;
16073;SDS011;8141;52.664;5.074;2023-04-25T09:25:50;7.67;;;2.23;;
16073;SDS011;8141;52.664;5.074;2023-04-25T09:28:27;4.23;;;1.90;;
16073;SDS011;8141;52.664;5.074;2023-04-25T09:30:56;5.23;;;1.80;;
16073;SDS011;8141;52.664;5.074;2023-04-25T09:33:29;6.70;;;1.90;;
16073;SDS011;8141;52.664;5.074;2023-04-25T09:36:06;8.77;;;2.67;;
16073;SDS011;8141;52.664;5.074;2023-04-25T09:38:40;6.27;;;2.30;;
16073;SDS011;8141;52.664;5.074;2023-04-25T09:43:37;6.80;;;1.98;;
16073;SDS011;8141;52.664;5.074;2023-04-25T09:46:10;5.13;;;2.07;;
16073;SDS011;8141;52.664;5.074;2023-04-25T09:48:36;6.17;;;1.97;;
16073;SDS011;8141;52.664;5.074;2023-04-25T09:51:12;7.00;;;2.60;;
16073;SDS011;8141;52.664;5.074;2023-04-25T09:56:07;4.17;;;2.03;;
16073;SDS011;8141;52.664;5.074;2023-04-25T09:58:35;6.17;;;2.10;;
16073;SDS011;8141;52.664;5.074;2023-04-25T10:01:03;6.20;;;1.83;;
16073;SDS011;8141;52.664;5.074;2023-04-25T10:03:33;7.03;;;2.10;;
16073;SDS011;8141;52.664;5.074;2023-04-25T10:06:00;5.80;;;1.90;;
16073;SDS011;8141;52.664;5.074;2023-04-25T10:08:31;5.67;;;1.83;;
16073;SDS011;8141;52.664;5.074;2023-04-25T10:11:03;5.90;;;2.07;;
16073;SDS011;8141;52.664;5.074;2023-04-25T10:13:30;5.37;;;2.03;;
16073;SDS011;8141;52.664;5.074;2023-04-25T10:15:58;6.80;;;2.00;;
16073;SDS011;8141;52.664;5.074;2023-04-25T10:18:27;6.20;;;1.63;;
16073;SDS011;8141;52.664;5.074;2023-04-25T10:20:55;6.73;;;2.00;;
16073;SDS011;8141;52.664;5.074;2023-04-25T10:23:23;6.17;;;1.87;;
16073;SDS011;8141;52.664;5.074;2023-04-25T10:25:50;4.57;;;1.50;;
16073;SDS011;8141;52.664;5.074;2023-04-25T10:28:17;6.20;;;1.93;;
16073;SDS011;8141;52.664;5.074;2023-04-25T10:30:57;7.23;;;2.27;;
16073;SDS011;8141;52.664;5.074;2023-04-25T10:33:37;6.70;;;1.87;;
16073;SDS011;8141;52.664;5.074;2023-04-25T10:36:17;6.80;;;1.50;;
16073;SDS011;8141;52.664;5.074;2023-04-25T10:38:46;4.57;;;2.10;;
16073;SDS011;8141;52.664;5.074;2023-04-25T10:41:17;6.27;;;1.90;;
16073;SDS011;8141;52.664;5.074;2023-04-25T10:43:48;3.90;;;1.50;;
16073;SDS011;8141;52.664;5.074;2023-04-25T10:46:22;4.57;;;1.93;;
16073;SDS011;8141;52.664;5.074;2023-04-25T10:48:51;5.93;;;1.80;;
16073;SDS011;8141;52.664;5.074;2023-04-25T10:51:22;6.20;;;1.83;;
16073;SDS011;8141;52.664;5.074;2023-04-25T10:56:28;7.20;;;2.20;;
16073;SDS011;8141;52.664;5.074;2023-04-25T10:59:08;5.13;;;1.97;;
16073;SDS011;8141;52.664;5.074;2023-04-25T11:01:46;5.67;;;1.80;;
16073;SDS011;8141;52.664;5.074;2023-04-25T11:09:42;2.87;;;1.57;;
16073;SDS011;8141;52.664;5.074;2023-04-25T11:12:10;6.80;;;2.00;;
16073;SDS011;8141;52.664;5.074;2023-04-25T11:14:37;4.07;;;1.33;;
16073;SDS011;8141;52.664;5.074;2023-04-25T11:17:03;5.93;;;1.80;;
16073;SDS011;8141;52.664;5.074;2023-04-25T11:19:30;4.57;;;1.80;;
16073;SDS011;8141;52.664;5.074;2023-04-25T11:24:29;3.92;;;1.92;;
16073;SDS011;8141;52.664;5.074;2023-04-25T11:26:58;5.50;;;2.00;;
16073;SDS011;8141;52.664;5.074;2023-04-25T11:29:27;5.33;;;1.37;;
16073;SDS011;8141;52.664;5.074;2023-04-25T11:31:55;4.77;;;1.60;;
16073;SDS011;8141;52.664;5.074;2023-04-25T11:34:25;4.00;;;1.30;;
16073;SDS011;8141;52.664;5.074;2023-04-25T11:36:51;4.70;;;1.73;;
16073;SDS011;8141;52.664;5.074;2023-04-25T11:39:21;6.67;;;1.50;;
16073;SDS011;8141;52.664;5.074;2023-04-25T11:41:48;5.73;;;1.63;;
16073;SDS011;8141;52.664;5.074;2023-04-25T11:44:15;7.43;;;1.90;;
16073;SDS011;8141;52.664;5.074;2023-04-25T11:46:43;4.03;;;1.80;;
16073;SDS011;8141;52.664;5.074;2023-04-25T11:49:10;6.27;;;1.70;;
16073;SDS011;8141;52.664;5.074;2023-04-25T11:51:43;7.37;;;1.40;;
16073;SDS011;8141;52.664;5.074;2023-04-25T11:54:11;3.83;;;1.50;;
16073;SDS011;8141;52.664;5.074;2023-04-25T11:56:40;3.77;;;1.37;;
16073;SDS011;8141;52.664;5.074;2023-04-25T11:59:07;4.63;;;1.30;;
16073;SDS011;8141;52.664;5.074;2023-04-25T12:04:16;3.85;;;1.40;;
16073;SDS011;8141;52.664;5.074;2023-04-25T12:06:47;5.95;;;1.45;;
16073;SDS011;8141;52.664;5.074;2023-04-25T12:09:17;3.27;;;1.50;;
16073;SDS011;8141;52.664;5.074;2023-04-25T12:11:56;3.90;;;1.20;;
16073;SDS011;8141;52.664;5.074;2023-04-25T12:14:24;3.43;;;1.17;;
16073;SDS011;8141;52.664;5.074;2023-04-25T12:16:53;3.70;;;1.40;;
16073;SDS011;8141;52.664;5.074;2023-04-25T12:19:22;4.80;;;1.43;;
16073;SDS011;8141;52.664;5.074;2023-04-25T12:21:49;5.10;;;1.77;;
16073;SDS011;8141;52.664;5.074;2023-04-25T12:29:20;6.10;;;1.90;;
16073;SDS011;8141;52.664;5.074;2023-04-25T12:31:49;4.03;;;1.70;;
16073;SDS011;8141;52.664;5.074;2023-04-25T12:34:16;5.00;;;1.37;;
16073;SDS011;8141;52.664;5.074;2023-04-25T12:36:46;5.27;;;1.60;;
16073;SDS011;8141;52.664;5.074;2023-04-25T12:39:22;7.17;;;1.67;;
16073;SDS011;8141;52.664;5.074;2023-04-25T12:41:51;5.83;;;1.90;;
16073;SDS011;8141;52.664;5.074;2023-04-25T12:44:18;2.63;;;1.37;;
16073;SDS011;8141;52.664;5.074;2023-04-25T12:46:45;2.93;;;1.40;;
16073;SDS011;8141;52.664;5.074;2023-04-25T12:49:11;4.70;;;1.70;;
16073;SDS011;8141;52.664;5.074;2023-04-25T12:54:03;4.40;;;1.70;;
16073;SDS011;8141;52.664;5.074;2023-04-25T12:56:31;6.97;;;1.60;;
16073;SDS011;8141;52.664;5.074;2023-04-25T13:01:23;4.38;;;1.55;;
16073;SDS011;8141;52.664;5.074;2023-04-25T13:03:50;4.30;;;1.80;;
16073;SDS011;8141;52.664;5.074;2023-04-25T13:06:16;3.87;;;1.67;;
16073;SDS011;8141;52.664;5.074;2023-04-25T13:08:43;5.07;;;1.90;;
16073;SDS011;8141;52.664;5.074;2023-04-25T13:13:35;4.53;;;1.43;;
16073;SDS011;8141;52.664;5.074;2023-04-25T13:16:01;3.83;;;1.90;;
16073;SDS011;8141;52.664;5.074;2023-04-25T13:18:28;6.40;;;1.67;;
16073;SDS011;8141;52.664;5.074;2023-04-25T13:20:55;5.30;;;1.87;;
16073;SDS011;8141;52.664;5.074;2023-04-25T13:23:22;6.83;;;1.87;;
16073;SDS011;8141;52.664;5.074;2023-04-25T13:25:50;4.67;;;1.97;;
16073;SDS011;8141;52.664;5.074;2023-04-25T13:30:41;3.23;;;1.17;;
16073;SDS011;8141;52.664;5.074;2023-04-25T13:33:07;4.67;;;1.80;;
16073;SDS011;8141;52.664;5.074;2023-04-25T13:38:00;4.68;;;1.70;;
16073;SDS011;8141;52.664;5.074;2023-04-25T13:40:26;3.37;;;1.50;;
16073;SDS011;8141;52.664;5.074;2023-04-25T13:42:52;5.70;;;1.77;;
16073;SDS011;8141;52.664;5.074;2023-04-25T13:45:19;3.03;;;1.40;;
16073;SDS011;8141;52.664;5.074;2023-04-25T13:47:45;4.50;;;1.90;;
16073;SDS011;8141;52.664;5.074;2023-04-25T13:50:11;5.43;;;1.60;;
16073;SDS011;8141;52.664;5.074;2023-04-25T13:52:39;5.93;;;1.67;;
16073;SDS011;8141;52.664;5.074;2023-04-25T13:55:05;4.57;;;1.67;;
16073;SDS011;8141;52.664;5.074;2023-04-25T13:57:33;3.37;;;1.40;;
16073;SDS011;8141;52.664;5.074;2023-04-25T13:59:59;4.67;;;1.80;;
16073;SDS011;8141;52.664;5.074;2023-04-25T14:02:31;4.77;;;1.30;;
16073;SDS011;8141;52.664;5.074;2023-04-25T14:04:56;4.90;;;1.80;;
16073;SDS011;8141;52.664;5.074;2023-04-25T14:09:48;4.77;;;1.60;;
16073;SDS011;8141;52.664;5.074;2023-04-25T14:14:40;4.63;;;1.30;;
16073;SDS011;8141;52.664;5.074;2023-04-25T14:17:06;3.80;;;1.23;;
16073;SDS011;8141;52.664;5.074;2023-04-25T14:19:31;3.73;;;1.60;;
16073;SDS011;8141;52.664;5.074;2023-04-25T14:21:57;4.67;;;1.67;;
16073;SDS011;8141;52.664;5.074;2023-04-25T14:24:23;5.43;;;1.27;;
16073;SDS011;8141;52.664;5.074;2023-04-25T14:26:50;4.60;;;1.40;;
16073;SDS011;8141;52.664;5.074;2023-04-25T14:31:41;7.83;;;1.80;;
16073;SDS011;8141;52.664;5.074;2023-04-25T14:34:07;6.67;;;1.53;;
16073;SDS011;8141;52.664;5.074;2023-04-25T14:36:33;4.27;;;1.30;;
16073;SDS011;8141;52.664;5.074;2023-04-25T14:39:00;6.53;;;1.40;;
16073;SDS011;8141;52.664;5.074;2023-04-25T14:43:52;5.77;;;1.70;;
16073;SDS011;8141;52.664;5.074;2023-04-25T14:46:18;6.60;;;1.63;;
16073;SDS011;8141;52.664;5.074;2023-04-25T14:48:45;4.40;;;1.90;;
16073;SDS011;8141;52.664;5.074;2023-04-25T14:51:13;6.03;;;1.40;;
16073;SDS011;8141;52.664;5.074;2023-04-25T14:56:05;4.35;;;1.60;;
16073;SDS011;8141;52.664;5.074;2023-04-25T14:58:32;4.83;;;1.40;;
16073;SDS011;8141;52.664;5.074;2023-04-25T15:00:58;6.97;;;2.13;;
16073;SDS011;8141;52.664;5.074;2023-04-25T15:03:24;7.87;;;2.07;;
16073;SDS011;8141;52.664;5.074;2023-04-25T15:05:51;5.13;;;1.50;;
16073;SDS011;8141;52.664;5.074;2023-04-25T15:08:17;4.00;;;1.70;;
16073;SDS011;8141;52.664;5.074;2023-04-25T15:13:09;4.63;;;2.20;;
16073;SDS011;8141;52.664;5.074;2023-04-25T15:15:35;5.60;;;1.53;;
16073;SDS011;8141;52.664;5.074;2023-04-25T15:18:01;3.63;;;1.40;;
16073;SDS011;8141;52.664;5.074;2023-04-25T15:20:27;4.27;;;1.63;;
16073;SDS011;8141;52.664;5.074;2023-04-25T15:25:19;4.90;;;1.73;;
16073;SDS011;8141;52.664;5.074;2023-04-25T15:27:45;4.77;;;1.80;;
16073;SDS011;8141;52.664;5.074;2023-04-25T15:30:16;5.53;;;1.90;;
16073;SDS011;8141;52.664;5.074;2023-04-25T15:32:43;5.67;;;1.97;;
16073;SDS011;8141;52.664;5.074;2023-04-25T15:35:10;5.13;;;2.00;;
16073;SDS011;8141;52.664;5.074;2023-04-25T15:37:37;5.20;;;1.90;;
16073;SDS011;8141;52.664;5.074;2023-04-25T15:40:04;6.33;;;2.30;;
16073;SDS011;8141;52.664;5.074;2023-04-25T15:42:43;4.60;;;1.92;;
16073;SDS011;8141;52.664;5.074;2023-04-25T15:45:12;4.83;;;1.73;;
16073;SDS011;8141;52.664;5.074;2023-04-25T15:47:41;7.13;;;2.10;;
16073;SDS011;8141;52.664;5.074;2023-04-25T15:52:33;6.22;;;1.88;;
16073;SDS011;8141;52.664;5.074;2023-04-25T15:55:00;6.30;;;2.37;;
16073;SDS011;8141;52.664;5.074;2023-04-25T15:57:28;7.60;;;1.90;;
16073;SDS011;8141;52.664;5.074;2023-04-25T15:59:54;7.40;;;2.50;;
16073;SDS011;8141;52.664;5.074;2023-04-25T16:02:20;8.60;;;2.33;;
16073;SDS011;8141;52.664;5.074;2023-04-25T16:04:46;6.30;;;1.93;;
16073;SDS011;8141;52.664;5.074;2023-04-25T16:09:38;6.22;;;1.90;;
16073;SDS011;8141;52.664;5.074;2023-04-25T16:12:05;7.23;;;2.00;;
16073;SDS011;8141;52.664;5.074;2023-04-25T16:14:34;5.97;;;1.63;;
16073;SDS011;8141;52.664;5.074;2023-04-25T16:16:59;5.20;;;1.90;;
16073;SDS011;8141;52.664;5.074;2023-04-25T16:21:51;7.20;;;2.60;;
16073;SDS011;8141;52.664;5.074;2023-04-25T16:26:42;3.60;;;2.20;;
16073;SDS011;8141;52.664;5.074;2023-04-25T16:29:09;4.03;;;1.80;;
16073;SDS011;8141;52.664;5.074;2023-04-25T16:31:35;9.30;;;2.37;;
16073;SDS011;8141;52.664;5.074;2023-04-25T16:34:02;6.57;;;2.23;;
16073;SDS011;8141;52.664;5.074;2023-04-25T16:36:28;7.03;;;2.20;;
16073;SDS011;8141;52.664;5.074;2023-04-25T16:38:56;5.23;;;1.70;;
16073;SDS011;8141;52.664;5.074;2023-04-25T16:41:22;6.77;;;2.23;;
16073;SDS011;8141;52.664;5.074;2023-04-25T16:43:49;6.23;;;1.90;;
16073;SDS011;8141;52.664;5.074;2023-04-25T16:48:43;7.30;;;2.13;;
16073;SDS011;8141;52.664;5.074;2023-04-25T16:51:12;7.90;;;2.17;;
16073;SDS011;8141;52.664;5.074;2023-04-25T16:53:39;7.93;;;2.30;;